sensor_id;sensor_type;location;lat;lon;timestamp;P1;durP1;ratioP1;P2;durP2;ratioP2
49820;SDS011;36893;52.520;13.450;2024-02-26T00:07:10;4.13;;;1.77;;
49820;SDS011;36893;52.520;13.450;2024-02-26T00:17:11;5.03;;;2.03;;
49820;SDS011;36893;52.520;13.450;2024-02-26T00:27:12;4.28;;;1.85;;
49820;SDS011;36893;52.520;13.450;2024-02-26T00:37:12;5.07;;;1.97;;
49820;SDS011;36893;52.520;13.450;2024-02-26T00:47:13;6.13;;;2.00;;
49820;SDS011;36893;52.520;13.450;2024-02-26T00:57:14;5.40;;;2.23;;
49820;SDS011;36893;52.520;13.450;2024-02-26T01:07:14;3.03;;;1.70;;
49820;SDS011;36893;52.520;13.450;2024-02-26T01:17:15;3.77;;;1.87;;
49820;SDS011;36893;52.520;13.450;2024-02-26T01:27:16;3.60;;;1.87;;
49820;SDS011;36893;52.520;13.450;2024-02-26T01:37:16;3.37;;;1.83;;
49820;SDS011;36893;52.520;13.450;2024-02-26T01:47:17;3.93;;;2.07;;
49820;SDS011;36893;52.520;13.450;2024-02-26T01:57:18;6.25;;;2.28;;
49820;SDS011;36893;52.520;13.450;2024-02-26T02:07:19;5.70;;;2.13;;
49820;SDS011;36893;52.520;13.450;2024-02-26T02:17:21;5.82;;;2.00;;
49820;SDS011;36893;52.520;13.450;2024-02-26T02:27:22;7.57;;;2.30;;
49820;SDS011;36893;52.520;13.450;2024-02-26T02:37:23;3.75;;;1.90;;
49820;SDS011;36893;52.520;13.450;2024-02-26T02:47:23;4.10;;;2.10;;
49820;SDS011;36893;52.520;13.450;2024-02-26T02:57:24;4.63;;;2.17;;
49820;SDS011;36893;52.520;13.450;2024-02-26T03:07:25;4.10;;;1.77;;
49820;SDS011;36893;52.520;13.450;2024-02-26T03:17:25;4.20;;;1.97;;
49820;SDS011;36893;52.520;13.450;2024-02-26T03:27:26;4.23;;;2.17;;
49820;SDS011;36893;52.520;13.450;2024-02-26T03:37:26;5.47;;;1.83;;
49820;SDS011;36893;52.520;13.450;2024-02-26T03:47:27;3.33;;;1.70;;
49820;SDS011;36893;52.520;13.450;2024-02-26T03:57:28;3.80;;;1.87;;
49820;SDS011;36893;52.520;13.450;2024-02-26T04:07:28;6.13;;;2.20;;
49820;SDS011;36893;52.520;13.450;2024-02-26T04:17:29;2.55;;;1.55;;
49820;SDS011;36893;52.520;13.450;2024-02-26T04:27:30;2.57;;;1.33;;
49820;SDS011;36893;52.520;13.450;2024-02-26T04:37:30;2.37;;;1.27;;
49820;SDS011;36893;52.520;13.450;2024-02-26T04:47:31;2.67;;;1.53;;
49820;SDS011;36893;52.520;13.450;2024-02-26T04:57:32;3.23;;;1.60;;
49820;SDS011;36893;52.520;13.450;2024-02-26T05:07:32;5.27;;;1.70;;
49820;SDS011;36893;52.520;13.450;2024-02-26T05:17:33;2.67;;;1.40;;
49820;SDS011;36893;52.520;13.450;2024-02-26T05:27:33;4.80;;;1.60;;
49820;SDS011;36893;52.520;13.450;2024-02-26T05:37:34;3.60;;;1.40;;
49820;SDS011;36893;52.520;13.450;2024-02-26T05:47:35;3.70;;;1.47;;
49820;SDS011;36893;52.520;13.450;2024-02-26T05:57:35;3.67;;;1.30;;
49820;SDS011;36893;52.520;13.450;2024-02-26T06:07:36;2.90;;;1.63;;
49820;SDS011;36893;52.520;13.450;2024-02-26T06:17:37;3.60;;;1.40;;
49820;SDS011;36893;52.520;13.450;2024-02-26T06:27:37;3.30;;;1.40;;
49820;SDS011;36893;52.520;13.450;2024-02-26T06:37:38;2.80;;;1.50;;
49820;SDS011;36893;52.520;13.450;2024-02-26T06:47:39;2.37;;;1.40;;
49820;SDS011;36893;52.520;13.450;2024-02-26T06:57:39;2.40;;;1.30;;
49820;SDS011;36893;52.520;13.450;2024-02-26T07:07:40;2.77;;;1.37;;
49820;SDS011;36893;52.520;13.450;2024-02-26T07:17:41;4.83;;;1.80;;
49820;SDS011;36893;52.520;13.450;2024-02-26T07:27:41;3.67;;;1.48;;
49820;SDS011;36893;52.520;13.450;2024-02-26T07:37:42;2.87;;;1.30;;
49820;SDS011;36893;52.520;13.450;2024-02-26T07:47:44;3.45;;;1.50;;
49820;SDS011;36893;52.520;13.450;2024-02-26T07:57:44;2.97;;;1.20;;
49820;SDS011;36893;52.520;13.450;2024-02-26T08:07:45;5.10;;;1.27;;
49820;SDS011;36893;52.520;13.450;2024-02-26T08:17:46;1.97;;;1.17;;
49820;SDS011;36893;52.520;13.450;2024-02-26T08:27:47;2.90;;;1.40;;
49820;SDS011;36893;52.520;13.450;2024-02-26T08:37:48;5.43;;;1.67;;
49820;SDS011;36893;52.520;13.450;2024-02-26T08:47:48;2.13;;;1.03;;
49820;SDS011;36893;52.520;13.450;2024-02-26T08:57:49;2.73;;;1.47;;
49820;SDS011;36893;52.520;13.450;2024-02-26T09:07:50;3.83;;;1.57;;
49820;SDS011;36893;52.520;13.450;2024-02-26T09:17:52;3.38;;;1.50;;
49820;SDS011;36893;52.520;13.450;2024-02-26T09:27:52;4.40;;;1.63;;
49820;SDS011;36893;52.520;13.450;2024-02-26T09:37:53;5.67;;;1.90;;
49820;SDS011;36893;52.520;13.450;2024-02-26T09:47:55;3.38;;;1.67;;
49820;SDS011;36893;52.520;13.450;2024-02-26T09:57:56;3.20;;;1.58;;
49820;SDS011;36893;52.520;13.450;2024-02-26T10:07:58;3.88;;;1.90;;
49820;SDS011;36893;52.520;13.450;2024-02-26T10:18:03;3.70;;;1.60;;
49820;SDS011;36893;52.520;13.450;2024-02-26T10:28:05;3.88;;;1.80;;
49820;SDS011;36893;52.520;13.450;2024-02-26T10:38:07;3.83;;;1.80;;
49820;SDS011;36893;52.520;13.450;2024-02-26T10:48:14;2.37;;;1.60;;
49820;SDS011;36893;52.520;13.450;2024-02-26T10:58:14;2.28;;;1.52;;
49820;SDS011;36893;52.520;13.450;2024-02-26T11:08:20;4.32;;;1.75;;
49820;SDS011;36893;52.520;13.450;2024-02-26T11:18:21;2.90;;;1.58;;
49820;SDS011;36893;52.520;13.450;2024-02-26T11:28:24;5.75;;;1.75;;
49820;SDS011;36893;52.520;13.450;2024-02-26T11:38:27;3.22;;;1.40;;
49820;SDS011;36893;52.520;13.450;2024-02-26T11:48:28;2.97;;;1.30;;
49820;SDS011;36893;52.520;13.450;2024-02-26T11:58:31;4.88;;;1.90;;
49820;SDS011;36893;52.520;13.450;2024-02-26T12:08:31;6.23;;;1.77;;
49820;SDS011;36893;52.520;13.450;2024-02-26T12:28:35;8.70;;;2.30;;
49820;SDS011;36893;52.520;13.450;2024-02-26T12:38:36;11.27;;;2.33;;
49820;SDS011;36893;52.520;13.450;2024-02-26T12:48:38;14.65;;;3.13;;
49820;SDS011;36893;52.520;13.450;2024-02-26T12:58:39;6.97;;;3.05;;
49820;SDS011;36893;52.520;13.450;2024-02-26T13:08:40;9.25;;;2.67;;
49820;SDS011;36893;52.520;13.450;2024-02-26T13:18:41;13.50;;;4.17;;
49820;SDS011;36893;52.520;13.450;2024-02-26T13:28:42;18.10;;;3.33;;
49820;SDS011;36893;52.520;13.450;2024-02-26T13:38:50;11.97;;;3.80;;
49820;SDS011;36893;52.520;13.450;2024-02-26T13:48:53;16.70;;;3.72;;
49820;SDS011;36893;52.520;13.450;2024-02-26T13:58:54;13.15;;;3.70;;
49820;SDS011;36893;52.520;13.450;2024-02-26T14:08:55;15.20;;;3.40;;
49820;SDS011;36893;52.520;13.450;2024-02-26T14:18:56;11.57;;;3.30;;
49820;SDS011;36893;52.520;13.450;2024-02-26T14:28:56;12.00;;;2.77;;
49820;SDS011;36893;52.520;13.450;2024-02-26T14:38:57;10.00;;;2.40;;
49820;SDS011;36893;52.520;13.450;2024-02-26T14:48:57;13.47;;;2.60;;
49820;SDS011;36893;52.520;13.450;2024-02-26T14:58:58;5.70;;;2.30;;
49820;SDS011;36893;52.520;13.450;2024-02-26T15:08:59;7.28;;;2.50;;
49820;SDS011;36893;52.520;13.450;2024-02-26T15:19:00;6.00;;;2.60;;
49820;SDS011;36893;52.520;13.450;2024-02-26T15:29:00;7.67;;;2.63;;
49820;SDS011;36893;52.520;13.450;2024-02-26T15:39:01;7.67;;;2.50;;
49820;SDS011;36893;52.520;13.450;2024-02-26T15:49:03;6.82;;;2.00;;
49820;SDS011;36893;52.520;13.450;2024-02-26T15:59:03;7.77;;;2.20;;
49820;SDS011;36893;52.520;13.450;2024-02-26T16:09:04;7.73;;;2.30;;
49820;SDS011;36893;52.520;13.450;2024-02-26T16:19:06;5.57;;;2.10;;
49820;SDS011;36893;52.520;13.450;2024-02-26T16:29:12;3.60;;;1.80;;
49820;SDS011;36893;52.520;13.450;2024-02-26T16:39:12;12.30;;;3.20;;
49820;SDS011;36893;52.520;13.450;2024-02-26T16:49:13;5.57;;;2.00;;
49820;SDS011;36893;52.520;13.450;2024-02-26T16:59:14;7.77;;;2.73;;
49820;SDS011;36893;52.520;13.450;2024-02-26T17:09:15;7.22;;;2.03;;
49820;SDS011;36893;52.520;13.450;2024-02-26T17:19:16;11.38;;;2.60;;
49820;SDS011;36893;52.520;13.450;2024-02-26T17:29:16;6.95;;;2.47;;
49820;SDS011;36893;52.520;13.450;2024-02-26T17:39:17;7.23;;;2.43;;
49820;SDS011;36893;52.520;13.450;2024-02-26T17:49:18;6.80;;;2.40;;
49820;SDS011;36893;52.520;13.450;2024-02-26T17:59:19;6.80;;;2.33;;
49820;SDS011;36893;52.520;13.450;2024-02-26T18:09:19;7.33;;;2.00;;
49820;SDS011;36893;52.520;13.450;2024-02-26T18:19:20;6.07;;;1.57;;
49820;SDS011;36893;52.520;13.450;2024-02-26T18:29:21;5.57;;;2.07;;
49820;SDS011;36893;52.520;13.450;2024-02-26T18:39:21;6.57;;;1.60;;
49820;SDS011;36893;52.520;13.450;2024-02-26T18:49:22;3.92;;;1.80;;
49820;SDS011;36893;52.520;13.450;2024-02-26T18:59:24;3.63;;;1.92;;
49820;SDS011;36893;52.520;13.450;2024-02-26T19:09:25;6.33;;;2.40;;
49820;SDS011;36893;52.520;13.450;2024-02-26T19:19:26;4.73;;;2.07;;
49820;SDS011;36893;52.520;13.450;2024-02-26T19:29:26;4.03;;;2.10;;
49820;SDS011;36893;52.520;13.450;2024-02-26T19:39:29;3.53;;;1.70;;
49820;SDS011;36893;52.520;13.450;2024-02-26T19:49:30;5.03;;;1.87;;
49820;SDS011;36893;52.520;13.450;2024-02-26T19:59:31;3.17;;;1.73;;
49820;SDS011;36893;52.520;13.450;2024-02-26T20:09:32;5.80;;;1.65;;
49820;SDS011;36893;52.520;13.450;2024-02-26T20:19:33;5.57;;;2.05;;
49820;SDS011;36893;52.520;13.450;2024-02-26T20:29:33;5.73;;;1.80;;
49820;SDS011;36893;52.520;13.450;2024-02-26T20:39:34;3.37;;;1.60;;
49820;SDS011;36893;52.520;13.450;2024-02-26T20:49:35;6.30;;;2.27;;
49820;SDS011;36893;52.520;13.450;2024-02-26T20:59:35;4.30;;;1.77;;
49820;SDS011;36893;52.520;13.450;2024-02-26T21:09:36;5.17;;;1.87;;
49820;SDS011;36893;52.520;13.450;2024-02-26T21:19:36;4.63;;;1.87;;
49820;SDS011;36893;52.520;13.450;2024-02-26T21:29:37;5.10;;;1.90;;
49820;SDS011;36893;52.520;13.450;2024-02-26T21:39:38;3.87;;;2.00;;
49820;SDS011;36893;52.520;13.450;2024-02-26T21:49:38;3.03;;;1.60;;
49820;SDS011;36893;52.520;13.450;2024-02-26T21:59:39;5.15;;;1.50;;
49820;SDS011;36893;52.520;13.450;2024-02-26T22:09:40;3.87;;;1.50;;
49820;SDS011;36893;52.520;13.450;2024-02-26T22:19:42;3.88;;;1.67;;
49820;SDS011;36893;52.520;13.450;2024-02-26T22:29:43;3.60;;;1.73;;
49820;SDS011;36893;52.520;13.450;2024-02-26T22:39:43;1.70;;;1.00;;
49820;SDS011;36893;52.520;13.450;2024-02-26T22:49:44;5.80;;;1.97;;
49820;SDS011;36893;52.520;13.450;2024-02-26T22:59:45;3.43;;;1.50;;
49820;SDS011;36893;52.520;13.450;2024-02-26T23:09:45;4.37;;;2.20;;
49820;SDS011;36893;52.520;13.450;2024-02-26T23:19:47;4.07;;;1.58;;
49820;SDS011;36893;52.520;13.450;2024-02-26T23:29:47;4.33;;;2.00;;
49820;SDS011;36893;52.520;13.450;2024-02-26T23:39:48;3.60;;;1.90;;
49820;SDS011;36893;52.520;13.450;2024-02-26T23:49:49;5.47;;;2.20;;
49820;SDS011;36893;52.520;13.450;2024-02-26T23:59:50;3.30;;;1.50;;
